Time;durP1;ratioP1;P1;durP2;ratioP2;P2;SDS_P1;SDS_P2;PMS_P1;PMS_P2;Temp;Humidity;BMP_temperature;BMP_pressure;BME280_temperature;BME280_humidity;BME280_pressure;Samples;Min_cycle;Max_cycle;Signal;HPM_P1;HPM_P2
2023/10/23 17:25:22;;;;;;;1.63;0.95;;;;;;;;;;5078559;23;20234;-60
2023/10/23 17:27:50;;;;;;;2.97;1.13;;;;;;;;;;5014841;28;20534;-60
2023/10/23 17:30:19;;;;;;;1.95;1.20;;;;;;;;;;5015687;28;20217;-60
2023/10/23 17:32:47;;;;;;;1.55;0.90;;;;;;;;;;5015445;28;20229;-60
2023/10/23 17:35:14;;;;;;;1.90;1.10;;;;;;;;;;5015810;28;20675;-60
2023/10/23 17:37:41;;;;;;;2.65;1.10;;;;;;;;;;5015411;28;20206;-60
2023/10/23 17:40:10;;;;;;;1.85;1.10;;;;;;;;;;5017828;28;20221;-60
2023/10/23 17:42:39;;;;;;;2.33;1.00;;;;;;;;;;5019588;28;20206;-60
2023/10/23 17:45:07;;;;;;;1.20;1.00;;;;;;;;;;5019473;28;20213;-60
2023/10/23 17:47:34;;;;;;;2.08;1.05;;;;;;;;;;5019463;28;20257;-60
2023/10/23 17:50:02;;;;;;;1.15;1.00;;;;;;;;;;5019409;28;20214;-60
2023/10/23 17:52:29;;;;;;;1.85;1.25;;;;;;;;;;5020082;28;20202;-60
2023/10/23 17:54:57;;;;;;;1.63;1.10;;;;;;;;;;5019579;28;20209;-60
2023/10/23 17:57:26;;;;;;;1.30;1.20;;;;;;;;;;5019348;28;20211;-60
2023/10/23 17:59:55;;;;;;;1.33;0.95;;;;;;;;;;5019447;28;20464;-60
2023/10/23 18:02:23;;;;;;;1.90;1.10;;;;;;;;;;5019272;28;20608;-60
2023/10/23 18:04:50;;;;;;;1.48;0.90;;;;;;;;;;5019057;28;20202;-60
2023/10/23 18:07:17;;;;;;;1.75;1.15;;;;;;;;;;5018929;28;20669;-60
2023/10/23 18:09:45;;;;;;;1.38;1.00;;;;;;;;;;5019449;28;20210;-60
2023/10/23 18:12:12;;;;;;;1.40;1.30;;;;;;;;;;5019149;28;20221;-60
2023/10/23 18:14:39;;;;;;;1.60;1.05;;;;;;;;;;5018911;28;20206;-60
2023/10/23 18:17:08;;;;;;;1.90;1.13;;;;;;;;;;5019492;28;20202;-60
2023/10/23 18:19:36;;;;;;;1.70;1.20;;;;;;;;;;5019533;28;20546;-60
2023/10/23 18:22:03;;;;;;;1.63;1.10;;;;;;;;;;5018940;28;20217;-60
2023/10/23 18:24:31;;;;;;;2.67;1.20;;;;;;;;;;5018960;28;20233;-60
2023/10/23 18:26:58;;;;;;;3.80;1.15;;;;;;;;;;5018500;28;20226;-60
2023/10/23 18:29:26;;;;;;;1.23;1.08;;;;;;;;;;5019481;28;20213;-60
2023/10/23 18:31:53;;;;;;;1.88;1.10;;;;;;;;;;5019303;28;20206;-60
2023/10/23 18:34:22;;;;;;;2.60;1.30;;;;;;;;;;5018569;28;20212;-60
2023/10/23 18:36:49;;;;;;;2.42;1.38;;;;;;;;;;5019356;28;20229;-60
2023/10/23 18:39:17;;;;;;;1.80;1.30;;;;;;;;;;5019383;28;20206;-60
2023/10/23 18:41:44;;;;;;;1.73;1.20;;;;;;;;;;5019088;28;20206;-60
2023/10/23 18:44:11;;;;;;;2.08;1.17;;;;;;;;;;5018976;28;20217;-60
2023/10/23 18:46:39;;;;;;;2.47;1.20;;;;;;;;;;5019101;28;20640;-60
2023/10/23 18:49:06;;;;;;;1.20;1.10;;;;;;;;;;5019260;28;20225;-60
2023/10/23 18:51:35;;;;;;;2.33;1.45;;;;;;;;;;5018511;28;20293;-60
2023/10/23 18:54:02;;;;;;;1.20;1.10;;;;;;;;;;5018641;28;20207;-60
2023/10/23 18:56:31;;;;;;;1.70;1.10;;;;;;;;;;5018788;28;20212;-60
2023/10/23 18:58:58;;;;;;;1.45;1.30;;;;;;;;;;5018932;28;20268;-60
2023/10/23 19:01:25;;;;;;;2.33;1.38;;;;;;;;;;5018409;28;20228;-60
2023/10/23 19:03:53;;;;;;;1.27;1.10;;;;;;;;;;5018290;28;20210;-60
2023/10/23 19:06:20;;;;;;;1.85;1.40;;;;;;;;;;5017864;28;20234;-60
2023/10/23 19:08:53;;;;;;;2.00;1.38;;;;;;;;;;5018539;28;20211;-60
2023/10/23 19:11:20;;;;;;;2.15;1.00;;;;;;;;;;5018304;28;20241;-60
2023/10/23 19:13:47;;;;;;;1.70;1.45;;;;;;;;;;5018474;28;20207;-60
2023/10/23 19:16:15;;;;;;;1.30;1.15;;;;;;;;;;5018538;28;20221;-60
2023/10/23 19:18:42;;;;;;;1.92;1.40;;;;;;;;;;5019211;28;20217;-60
2023/10/23 19:21:11;;;;;;;1.25;1.15;;;;;;;;;;5019046;28;20214;-60
2023/10/23 19:23:40;;;;;;;2.40;1.48;;;;;;;;;;5018663;28;20230;-60
2023/10/23 19:26:09;;;;;;;1.58;1.27;;;;;;;;;;5017937;28;20321;-60
2023/10/23 19:28:37;;;;;;;1.15;1.05;;;;;;;;;;5018414;28;20273;-60
2023/10/23 19:31:12;;;;;;;1.52;1.20;;;;;;;;;;5019132;28;20207;-60
2023/10/23 19:33:40;;;;;;;1.33;1.10;;;;;;;;;;5018224;28;20660;-59
2023/10/23 19:36:09;;;;;;;2.00;1.40;;;;;;;;;;5017748;28;20574;-59
2023/10/23 19:38:37;;;;;;;2.30;1.63;;;;;;;;;;5017742;28;20215;-59
2023/10/23 19:41:05;;;;;;;2.65;1.60;;;;;;;;;;5018598;28;20492;-59
2023/10/23 19:43:39;;;;;;;1.73;1.30;;;;;;;;;;5018816;28;20482;-59
2023/10/23 19:46:06;;;;;;;1.90;1.30;;;;;;;;;;5018807;28;20214;-59
2023/10/23 19:48:34;;;;;;;1.92;1.50;;;;;;;;;;5018526;28;20625;-59
2023/10/23 19:51:04;;;;;;;2.40;1.40;;;;;;;;;;5018657;28;20206;-59
2023/10/23 19:53:31;;;;;;;2.42;1.58;;;;;;;;;;5018465;28;20574;-59
2023/10/23 19:55:59;;;;;;;1.85;1.50;;;;;;;;;;5018664;28;20210;-59
2023/10/23 19:58:26;;;;;;;1.65;1.30;;;;;;;;;;5018659;28;20232;-59
2023/10/23 20:00:56;;;;;;;1.50;1.38;;;;;;;;;;5018473;28;20221;-59
2023/10/23 20:03:23;;;;;;;2.17;1.52;;;;;;;;;;5017159;28;20206;-60
2023/10/23 20:05:54;;;;;;;1.85;1.23;;;;;;;;;;5017566;28;20221;-60
2023/10/23 20:08:21;;;;;;;2.00;1.50;;;;;;;;;;5017225;28;20252;-60
2023/10/23 20:10:49;;;;;;;2.67;1.50;;;;;;;;;;5017828;28;20210;-60
2023/10/23 20:13:16;;;;;;;2.05;1.40;;;;;;;;;;5018028;28;20202;-60
2023/10/23 20:15:45;;;;;;;2.65;1.58;;;;;;;;;;5017348;28;20229;-60
2023/10/23 20:18:15;;;;;;;2.00;1.52;;;;;;;;;;5016896;28;20214;-60
2023/10/23 20:20:42;;;;;;;2.22;1.50;;;;;;;;;;5017263;28;20206;-60
2023/10/23 20:23:12;;;;;;;2.25;1.60;;;;;;;;;;5016993;28;20485;-60
2023/10/23 20:25:39;;;;;;;1.65;1.55;;;;;;;;;;5018226;28;20540;-60
2023/10/23 20:28:06;;;;;;;2.15;1.20;;;;;;;;;;5017499;28;20234;-60
2023/10/23 20:30:36;;;;;;;2.30;1.95;;;;;;;;;;5017789;28;20278;-60
2023/10/23 20:33:03;;;;;;;2.03;1.52;;;;;;;;;;5017588;28;20288;-60
2023/10/23 20:35:32;;;;;;;2.15;1.67;;;;;;;;;;5017290;28;20217;-60
2023/10/23 20:37:59;;;;;;;1.67;1.58;;;;;;;;;;5017710;28;20221;-60
2023/10/23 20:40:27;;;;;;;1.90;1.73;;;;;;;;;;5017779;28;20217;-60
2023/10/23 20:42:54;;;;;;;1.90;1.70;;;;;;;;;;5017672;28;20237;-60
2023/10/23 20:45:22;;;;;;;1.85;1.60;;;;;;;;;;5017691;28;20589;-60
2023/10/23 20:47:49;;;;;;;2.45;1.80;;;;;;;;;;5017750;28;20226;-60
2023/10/23 20:50:19;;;;;;;2.28;1.77;;;;;;;;;;5017453;28;20264;-60
2023/10/23 20:52:48;;;;;;;2.15;1.70;;;;;;;;;;5015519;28;20238;-59
2023/10/23 20:55:15;;;;;;;1.90;1.80;;;;;;;;;;5012468;28;20202;-59
2023/10/23 20:57:43;;;;;;;2.13;1.67;;;;;;;;;;5016913;28;20209;-60
2023/10/23 21:00:11;;;;;;;2.10;1.90;;;;;;;;;;5017859;28;20206;-60
2023/10/23 21:02:38;;;;;;;2.30;1.65;;;;;;;;;;5017302;28;20206;-60
2023/10/23 21:05:06;;;;;;;2.17;1.98;;;;;;;;;;5016770;28;20220;-60
2023/10/23 21:07:34;;;;;;;2.03;1.58;;;;;;;;;;5017418;28;20321;-60
2023/10/23 21:10:03;;;;;;;2.00;1.80;;;;;;;;;;5017416;28;20271;-60
2023/10/23 21:12:30;;;;;;;2.63;1.90;;;;;;;;;;5017770;28;20206;-60
2023/10/23 21:14:58;;;;;;;2.50;1.73;;;;;;;;;;5017184;28;20246;-60
2023/10/23 21:17:25;;;;;;;2.10;1.77;;;;;;;;;;5017282;28;20252;-60
2023/10/23 21:19:53;;;;;;;2.30;2.10;;;;;;;;;;5017282;28;20316;-60
2023/10/23 21:22:20;;;;;;;2.25;1.85;;;;;;;;;;5017446;28;20206;-60
2023/10/23 21:24:48;;;;;;;2.55;1.70;;;;;;;;;;5016810;28;20268;-60
2023/10/23 21:27:16;;;;;;;2.20;1.70;;;;;;;;;;5016861;28;20715;-60
2023/10/23 21:29:45;;;;;;;2.05;1.63;;;;;;;;;;5017029;28;20216;-60
2023/10/23 21:32:13;;;;;;;1.98;1.77;;;;;;;;;;5017086;28;20206;-60
2023/10/23 21:34:40;;;;;;;1.63;1.50;;;;;;;;;;5017040;28;20208;-60
2023/10/23 21:37:08;;;;;;;2.13;1.70;;;;;;;;;;5017133;28;20210;-60
2023/10/23 21:39:35;;;;;;;2.17;1.80;;;;;;;;;;5017242;28;20210;-60
2023/10/23 21:42:03;;;;;;;1.92;1.73;;;;;;;;;;5017281;28;20214;-60
2023/10/23 21:44:32;;;;;;;3.33;2.00;;;;;;;;;;5016964;28;20272;-60
2023/10/23 21:46:59;;;;;;;1.95;1.75;;;;;;;;;;5016956;28;20230;-60
2023/10/23 21:49:27;;;;;;;2.10;1.75;;;;;;;;;;5017001;28;20261;-60
2023/10/23 21:51:55;;;;;;;2.70;1.90;;;;;;;;;;5016588;28;20268;-60
2023/10/23 21:54:22;;;;;;;2.53;2.10;;;;;;;;;;5016621;28;20206;-60
2023/10/23 21:56:50;;;;;;;2.22;1.83;;;;;;;;;;5016585;28;20213;-61
2023/10/23 21:59:18;;;;;;;2.40;1.75;;;;;;;;;;5016659;28;20601;-60
2023/10/23 22:01:47;;;;;;;2.20;1.63;;;;;;;;;;5016665;28;20249;-60
2023/10/23 22:04:15;;;;;;;1.65;1.55;;;;;;;;;;5017075;28;20712;-60
2023/10/23 22:06:43;;;;;;;1.92;1.83;;;;;;;;;;5016615;28;20566;-60
2023/10/23 22:09:13;;;;;;;1.85;1.75;;;;;;;;;;5016714;28;20254;-60
2023/10/23 22:11:41;;;;;;;1.98;1.88;;;;;;;;;;5016850;28;20210;-60
2023/10/23 22:14:08;;;;;;;1.98;1.70;;;;;;;;;;5016860;28;20206;-60
2023/10/23 22:16:36;;;;;;;2.45;1.95;;;;;;;;;;5017401;28;20316;-60
2023/10/23 22:19:05;;;;;;;1.80;1.65;;;;;;;;;;5016758;28;20213;-60
2023/10/23 22:21:32;;;;;;;1.90;1.80;;;;;;;;;;5016947;28;20211;-60
2023/10/23 22:24:00;;;;;;;2.30;1.90;;;;;;;;;;5016418;28;20337;-60
2023/10/23 22:26:27;;;;;;;2.05;1.83;;;;;;;;;;5018262;28;20217;-60
2023/10/23 22:28:55;;;;;;;1.92;1.80;;;;;;;;;;5020332;28;20226;-60
2023/10/23 22:31:22;;;;;;;2.03;1.60;;;;;;;;;;5020244;28;20206;-60
2023/10/23 22:33:50;;;;;;;2.00;1.80;;;;;;;;;;5020516;28;20214;-60
2023/10/23 22:36:19;;;;;;;2.33;1.77;;;;;;;;;;5019785;28;20206;-60
2023/10/23 22:38:46;;;;;;;2.00;1.80;;;;;;;;;;5020064;28;20297;-60
2023/10/23 22:41:13;;;;;;;1.77;1.67;;;;;;;;;;5020287;28;20257;-60
2023/10/23 22:43:41;;;;;;;2.33;1.70;;;;;;;;;;5019577;28;20206;-60
2023/10/23 22:46:09;;;;;;;1.88;1.77;;;;;;;;;;5019944;28;20206;-60
2023/10/23 22:48:36;;;;;;;1.70;1.60;;;;;;;;;;5019655;28;20233;-60
2023/10/23 22:51:03;;;;;;;1.75;1.55;;;;;;;;;;5019918;28;20301;-60
2023/10/23 22:53:35;;;;;;;2.05;1.80;;;;;;;;;;5019853;28;20206;-60
2023/10/23 22:56:03;;;;;;;2.25;1.88;;;;;;;;;;5020237;28;20210;-60
2023/10/23 22:58:31;;;;;;;1.85;1.75;;;;;;;;;;5020472;28;20305;-60
2023/10/23 23:01:00;;;;;;;2.42;1.75;;;;;;;;;;5019755;28;20285;-60
2023/10/23 23:03:27;;;;;;;2.90;1.77;;;;;;;;;;5019644;28;20645;-60
2023/10/23 23:05:59;;;;;;;3.30;1.77;;;;;;;;;;5019532;28;20246;-60
2023/10/23 23:08:27;;;;;;;2.03;1.75;;;;;;;;;;5019534;28;20317;-60
2023/10/23 23:10:56;;;;;;;1.70;1.52;;;;;;;;;;5019695;28;20582;-60
2023/10/23 23:13:25;;;;;;;2.05;1.60;;;;;;;;;;5019739;28;20202;-60
2023/10/23 23:15:53;;;;;;;1.92;1.58;;;;;;;;;;5019596;28;20501;-60
2023/10/23 23:18:20;;;;;;;1.55;1.45;;;;;;;;;;5019459;28;20596;-60
2023/10/23 23:20:49;;;;;;;2.00;1.73;;;;;;;;;;5019757;28;20211;-60
2023/10/23 23:23:16;;;;;;;4.07;1.83;;;;;;;;;;5019423;28;20206;-60
2023/10/23 23:25:43;;;;;;;1.83;1.60;;;;;;;;;;5019865;28;20241;-60
2023/10/23 23:28:13;;;;;;;2.25;1.77;;;;;;;;;;5019377;28;20293;-60
2023/10/23 23:30:40;;;;;;;1.65;1.55;;;;;;;;;;5018737;28;20297;-60
2023/10/23 23:33:07;;;;;;;1.73;1.45;;;;;;;;;;5019230;28;20582;-60
2023/10/23 23:35:36;;;;;;;2.33;1.60;;;;;;;;;;5019421;28;20660;-60
2023/10/23 23:38:03;;;;;;;1.40;1.30;;;;;;;;;;5019124;28;20203;-60
2023/10/23 23:40:31;;;;;;;2.10;1.90;;;;;;;;;;5018976;28;20289;-60
2023/10/23 23:42:58;;;;;;;2.35;1.80;;;;;;;;;;5019430;28;20260;-60
2023/10/23 23:45:27;;;;;;;1.70;1.60;;;;;;;;;;5018836;28;20297;-60
2023/10/23 23:47:54;;;;;;;2.10;1.90;;;;;;;;;;5019196;28;20678;-60
2023/10/23 23:50:21;;;;;;;1.90;1.77;;;;;;;;;;5019065;28;20579;-60
2023/10/23 23:52:49;;;;;;;1.80;1.70;;;;;;;;;;5019437;28;20207;-60
2023/10/23 23:55:17;;;;;;;2.42;1.58;;;;;;;;;;5019089;28;20213;-60
2023/10/23 23:57:45;;;;;;;1.73;1.63;;;;;;;;;;5019051;28;20202;-60
